sensor_id;sensor_type;location;lat;lon;timestamp;P1;durP1;ratioP1;P2;durP2;ratioP2
12631;SDS011;6381;45.748;12.106;2024-03-23T00:54:18;26.23;;;20.63;;
12631;SDS011;6381;45.748;12.106;2024-03-23T00:56:45;23.67;;;20.73;;
12631;SDS011;6381;45.748;12.106;2024-03-23T00:59:14;27.33;;;21.13;;
12631;SDS011;6381;45.748;12.106;2024-03-23T01:01:41;25.73;;;21.53;;
12631;SDS011;6381;45.748;12.106;2024-03-23T01:04:10;26.43;;;21.97;;
12631;SDS011;6381;45.748;12.106;2024-03-23T01:06:37;32.37;;;25.47;;
12631;SDS011;6381;45.748;12.106;2024-03-23T01:09:06;30.10;;;24.03;;
12631;SDS011;6381;45.748;12.106;2024-03-23T01:11:38;30.23;;;24.50;;
12631;SDS011;6381;45.748;12.106;2024-03-23T01:14:07;29.43;;;23.87;;
12631;SDS011;6381;45.748;12.106;2024-03-23T01:16:34;32.53;;;25.20;;
12631;SDS011;6381;45.748;12.106;2024-03-23T01:19:02;29.50;;;23.97;;
12631;SDS011;6381;45.748;12.106;2024-03-23T01:21:30;27.50;;;23.10;;
12631;SDS011;6381;45.748;12.106;2024-03-23T01:24:01;30.13;;;23.53;;
12631;SDS011;6381;45.748;12.106;2024-03-23T01:26:28;28.27;;;23.70;;
12631;SDS011;6381;45.748;12.106;2024-03-23T01:28:58;29.40;;;23.27;;
12631;SDS011;6381;45.748;12.106;2024-03-23T01:31:25;30.23;;;24.00;;
12631;SDS011;6381;45.748;12.106;2024-03-23T01:33:54;31.30;;;23.47;;
12631;SDS011;6381;45.748;12.106;2024-03-23T01:36:22;29.27;;;23.33;;
12631;SDS011;6381;45.748;12.106;2024-03-23T01:38:50;26.50;;;23.10;;
12631;SDS011;6381;45.748;12.106;2024-03-23T01:41:18;27.40;;;22.33;;
12631;SDS011;6381;45.748;12.106;2024-03-23T01:43:47;26.67;;;22.20;;
12631;SDS011;6381;45.748;12.106;2024-03-23T01:46:15;26.50;;;22.17;;
12631;SDS011;6381;45.748;12.106;2024-03-23T01:48:44;26.33;;;22.27;;
12631;SDS011;6381;45.748;12.106;2024-03-23T01:51:13;26.47;;;22.97;;
12631;SDS011;6381;45.748;12.106;2024-03-23T01:53:41;27.97;;;22.83;;
12631;SDS011;6381;45.748;12.106;2024-03-23T01:56:08;27.03;;;22.13;;
12631;SDS011;6381;45.748;12.106;2024-03-23T01:58:37;28.17;;;22.07;;
12631;SDS011;6381;45.748;12.106;2024-03-23T02:01:04;26.23;;;21.93;;
12631;SDS011;6381;45.748;12.106;2024-03-23T02:03:34;25.97;;;22.77;;
12631;SDS011;6381;45.748;12.106;2024-03-23T02:06:03;28.23;;;22.97;;
12631;SDS011;6381;45.748;12.106;2024-03-23T02:08:33;26.43;;;21.67;;
12631;SDS011;6381;45.748;12.106;2024-03-23T02:11:01;26.73;;;22.17;;
12631;SDS011;6381;45.748;12.106;2024-03-23T02:13:30;24.83;;;22.13;;
12631;SDS011;6381;45.748;12.106;2024-03-23T02:15:57;26.20;;;22.30;;
12631;SDS011;6381;45.748;12.106;2024-03-23T02:18:26;25.70;;;22.53;;
12631;SDS011;6381;45.748;12.106;2024-03-23T02:20:55;24.17;;;21.67;;
12631;SDS011;6381;45.748;12.106;2024-03-23T02:23:25;24.37;;;21.23;;
12631;SDS011;6381;45.748;12.106;2024-03-23T02:25:52;24.70;;;21.43;;
12631;SDS011;6381;45.748;12.106;2024-03-23T02:28:21;24.87;;;22.13;;
12631;SDS011;6381;45.748;12.106;2024-03-23T02:30:48;24.23;;;20.33;;
12631;SDS011;6381;45.748;12.106;2024-03-23T02:33:17;23.77;;;21.20;;
12631;SDS011;6381;45.748;12.106;2024-03-23T02:35:45;25.13;;;21.30;;
12631;SDS011;6381;45.748;12.106;2024-03-23T02:38:13;23.97;;;21.30;;
12631;SDS011;6381;45.748;12.106;2024-03-23T02:40:42;24.50;;;21.20;;
12631;SDS011;6381;45.748;12.106;2024-03-23T02:43:11;23.83;;;20.83;;
12631;SDS011;6381;45.748;12.106;2024-03-23T02:45:38;25.63;;;21.07;;
12631;SDS011;6381;45.748;12.106;2024-03-23T02:48:07;25.13;;;22.43;;
12631;SDS011;6381;45.748;12.106;2024-03-23T02:50:34;24.93;;;22.23;;
12631;SDS011;6381;45.748;12.106;2024-03-23T02:53:03;25.50;;;22.60;;
12631;SDS011;6381;45.748;12.106;2024-03-23T02:55:30;24.97;;;22.10;;
12631;SDS011;6381;45.748;12.106;2024-03-23T02:58:00;24.27;;;21.67;;
12631;SDS011;6381;45.748;12.106;2024-03-23T03:00:28;26.03;;;23.07;;
12631;SDS011;6381;45.748;12.106;2024-03-23T03:02:56;24.93;;;22.23;;
12631;SDS011;6381;45.748;12.106;2024-03-23T03:05:24;24.87;;;22.27;;
12631;SDS011;6381;45.748;12.106;2024-03-23T03:07:52;29.67;;;23.47;;
12631;SDS011;6381;45.748;12.106;2024-03-23T03:10:20;24.97;;;21.83;;
12631;SDS011;6381;45.748;12.106;2024-03-23T03:12:48;26.33;;;23.53;;
12631;SDS011;6381;45.748;12.106;2024-03-23T03:15:17;25.90;;;22.43;;
12631;SDS011;6381;45.748;12.106;2024-03-23T03:17:46;25.73;;;22.53;;
12631;SDS011;6381;45.748;12.106;2024-03-23T03:20:13;28.77;;;24.10;;
12631;SDS011;6381;45.748;12.106;2024-03-23T03:22:43;26.87;;;23.83;;
12631;SDS011;6381;45.748;12.106;2024-03-23T03:25:11;27.53;;;24.53;;
12631;SDS011;6381;45.748;12.106;2024-03-23T03:27:39;27.00;;;23.73;;
12631;SDS011;6381;45.748;12.106;2024-03-23T03:30:07;27.47;;;24.50;;
12631;SDS011;6381;45.748;12.106;2024-03-23T03:32:37;26.27;;;23.57;;
12631;SDS011;6381;45.748;12.106;2024-03-23T03:35:05;28.20;;;24.70;;
12631;SDS011;6381;45.748;12.106;2024-03-23T03:37:33;27.67;;;24.43;;
12631;SDS011;6381;45.748;12.106;2024-03-23T03:40:01;27.50;;;24.53;;
12631;SDS011;6381;45.748;12.106;2024-03-23T03:42:30;29.70;;;25.93;;
12631;SDS011;6381;45.748;12.106;2024-03-23T03:44:58;30.20;;;26.93;;
12631;SDS011;6381;45.748;12.106;2024-03-23T03:47:26;30.10;;;25.70;;
12631;SDS011;6381;45.748;12.106;2024-03-23T03:49:55;33.33;;;28.50;;
12631;SDS011;6381;45.748;12.106;2024-03-23T03:52:24;33.63;;;28.47;;
12631;SDS011;6381;45.748;12.106;2024-03-23T03:54:55;32.47;;;26.70;;
12631;SDS011;6381;45.748;12.106;2024-03-23T03:57:24;32.13;;;28.83;;
12631;SDS011;6381;45.748;12.106;2024-03-23T03:59:51;31.70;;;28.30;;
12631;SDS011;6381;45.748;12.106;2024-03-23T04:02:20;34.63;;;29.87;;
12631;SDS011;6381;45.748;12.106;2024-03-23T04:04:47;35.60;;;30.83;;
12631;SDS011;6381;45.748;12.106;2024-03-23T04:07:17;33.13;;;29.57;;
12631;SDS011;6381;45.748;12.106;2024-03-23T04:09:46;34.90;;;31.07;;
12631;SDS011;6381;45.748;12.106;2024-03-23T04:12:15;36.30;;;32.30;;
12631;SDS011;6381;45.748;12.106;2024-03-23T04:14:42;36.50;;;32.53;;
12631;SDS011;6381;45.748;12.106;2024-03-23T04:17:11;39.77;;;34.37;;
12631;SDS011;6381;45.748;12.106;2024-03-23T04:19:38;39.80;;;34.23;;
12631;SDS011;6381;45.748;12.106;2024-03-23T04:22:07;36.87;;;32.77;;
12631;SDS011;6381;45.748;12.106;2024-03-23T04:24:36;39.93;;;33.80;;
12631;SDS011;6381;45.748;12.106;2024-03-23T04:27:05;38.33;;;34.23;;
12631;SDS011;6381;45.748;12.106;2024-03-23T04:29:32;37.53;;;33.40;;
12631;SDS011;6381;45.748;12.106;2024-03-23T04:32:01;37.97;;;34.03;;
12631;SDS011;6381;45.748;12.106;2024-03-23T04:34:28;40.50;;;34.63;;
12631;SDS011;6381;45.748;12.106;2024-03-23T04:36:58;39.97;;;35.03;;
12631;SDS011;6381;45.748;12.106;2024-03-23T04:39:26;39.40;;;34.23;;
12631;SDS011;6381;45.748;12.106;2024-03-23T04:41:56;41.50;;;35.73;;
12631;SDS011;6381;45.748;12.106;2024-03-23T04:44:24;38.50;;;33.77;;
12631;SDS011;6381;45.748;12.106;2024-03-23T04:46:53;39.13;;;34.33;;
12631;SDS011;6381;45.748;12.106;2024-03-23T04:49:23;39.70;;;34.33;;
12631;SDS011;6381;45.748;12.106;2024-03-23T04:51:51;41.97;;;35.50;;
12631;SDS011;6381;45.748;12.106;2024-03-23T04:54:20;38.73;;;34.23;;
12631;SDS011;6381;45.748;12.106;2024-03-23T04:56:48;40.00;;;34.13;;
12631;SDS011;6381;45.748;12.106;2024-03-23T04:59:18;39.87;;;34.90;;
12631;SDS011;6381;45.748;12.106;2024-03-23T05:01:45;38.73;;;34.13;;
12631;SDS011;6381;45.748;12.106;2024-03-23T05:04:15;38.33;;;33.47;;
12631;SDS011;6381;45.748;12.106;2024-03-23T05:06:43;37.57;;;32.87;;
12631;SDS011;6381;45.748;12.106;2024-03-23T05:09:11;38.50;;;32.83;;
12631;SDS011;6381;45.748;12.106;2024-03-23T05:11:39;36.23;;;31.67;;
12631;SDS011;6381;45.748;12.106;2024-03-23T05:14:07;39.47;;;33.40;;
12631;SDS011;6381;45.748;12.106;2024-03-23T05:16:36;42.03;;;33.90;;
12631;SDS011;6381;45.748;12.106;2024-03-23T05:19:05;38.90;;;34.10;;
12631;SDS011;6381;45.748;12.106;2024-03-23T05:21:32;39.20;;;34.77;;
12631;SDS011;6381;45.748;12.106;2024-03-23T05:24:01;41.33;;;34.73;;
12631;SDS011;6381;45.748;12.106;2024-03-23T05:26:29;41.30;;;35.53;;
12631;SDS011;6381;45.748;12.106;2024-03-23T05:28:57;41.43;;;34.23;;
12631;SDS011;6381;45.748;12.106;2024-03-23T05:31:25;41.37;;;34.13;;
12631;SDS011;6381;45.748;12.106;2024-03-23T05:33:55;41.93;;;35.97;;
12631;SDS011;6381;45.748;12.106;2024-03-23T05:36:22;40.53;;;34.83;;
12631;SDS011;6381;45.748;12.106;2024-03-23T05:38:51;38.73;;;33.37;;
12631;SDS011;6381;45.748;12.106;2024-03-23T05:41:18;43.50;;;34.70;;
12631;SDS011;6381;45.748;12.106;2024-03-23T05:43:47;39.10;;;32.63;;
12631;SDS011;6381;45.748;12.106;2024-03-23T05:46:15;41.60;;;33.37;;
12631;SDS011;6381;45.748;12.106;2024-03-23T05:48:44;38.37;;;32.70;;
12631;SDS011;6381;45.748;12.106;2024-03-23T05:51:12;41.13;;;32.53;;
12631;SDS011;6381;45.748;12.106;2024-03-23T05:53:42;34.73;;;30.30;;
12631;SDS011;6381;45.748;12.106;2024-03-23T05:56:09;35.10;;;30.63;;
12631;SDS011;6381;45.748;12.106;2024-03-23T05:58:38;35.43;;;29.83;;
12631;SDS011;6381;45.748;12.106;2024-03-23T06:01:05;34.30;;;28.73;;
12631;SDS011;6381;45.748;12.106;2024-03-23T06:03:33;36.30;;;29.13;;
12631;SDS011;6381;45.748;12.106;2024-03-23T06:06:01;35.83;;;30.67;;
12631;SDS011;6381;45.748;12.106;2024-03-23T06:08:31;36.77;;;30.83;;
12631;SDS011;6381;45.748;12.106;2024-03-23T06:10:59;34.40;;;30.50;;
12631;SDS011;6381;45.748;12.106;2024-03-23T06:13:27;33.67;;;29.67;;
12631;SDS011;6381;45.748;12.106;2024-03-23T06:15:56;36.57;;;30.10;;
12631;SDS011;6381;45.748;12.106;2024-03-23T06:18:24;35.10;;;30.13;;
12631;SDS011;6381;45.748;12.106;2024-03-23T06:20:52;33.67;;;29.03;;
12631;SDS011;6381;45.748;12.106;2024-03-23T06:23:20;33.23;;;28.37;;
12631;SDS011;6381;45.748;12.106;2024-03-23T06:25:49;32.47;;;28.97;;
12631;SDS011;6381;45.748;12.106;2024-03-23T06:28:17;33.30;;;28.23;;
12631;SDS011;6381;45.748;12.106;2024-03-23T06:30:45;31.87;;;27.47;;
12631;SDS011;6381;45.748;12.106;2024-03-23T06:33:13;31.40;;;27.07;;
12631;SDS011;6381;45.748;12.106;2024-03-23T06:35:41;34.67;;;27.67;;
12631;SDS011;6381;45.748;12.106;2024-03-23T06:38:09;29.30;;;25.07;;
12631;SDS011;6381;45.748;12.106;2024-03-23T06:40:36;29.20;;;24.43;;
12631;SDS011;6381;45.748;12.106;2024-03-23T06:43:06;30.33;;;25.20;;
12631;SDS011;6381;45.748;12.106;2024-03-23T06:45:34;30.47;;;25.67;;
12631;SDS011;6381;45.748;12.106;2024-03-23T06:48:03;29.40;;;25.03;;
12631;SDS011;6381;45.748;12.106;2024-03-23T06:50:33;26.87;;;23.93;;
12631;SDS011;6381;45.748;12.106;2024-03-23T06:53:01;26.47;;;23.17;;
12631;SDS011;6381;45.748;12.106;2024-03-23T06:55:31;28.17;;;24.37;;
12631;SDS011;6381;45.748;12.106;2024-03-23T06:58:00;27.37;;;23.87;;
12631;SDS011;6381;45.748;12.106;2024-03-23T07:00:29;26.67;;;22.93;;
12631;SDS011;6381;45.748;12.106;2024-03-23T07:02:58;25.43;;;22.17;;
12631;SDS011;6381;45.748;12.106;2024-03-23T07:05:25;26.70;;;22.30;;
12631;SDS011;6381;45.748;12.106;2024-03-23T07:07:53;26.00;;;21.53;;
12631;SDS011;6381;45.748;12.106;2024-03-23T07:10:21;26.43;;;22.10;;
12631;SDS011;6381;45.748;12.106;2024-03-23T07:12:49;24.10;;;21.40;;
12631;SDS011;6381;45.748;12.106;2024-03-23T07:15:17;24.87;;;21.33;;
12631;SDS011;6381;45.748;12.106;2024-03-23T07:17:48;25.03;;;21.30;;
12631;SDS011;6381;45.748;12.106;2024-03-23T07:20:15;25.67;;;22.27;;
12631;SDS011;6381;45.748;12.106;2024-03-23T07:22:45;26.43;;;22.10;;
12631;SDS011;6381;45.748;12.106;2024-03-23T07:25:13;25.87;;;22.03;;
12631;SDS011;6381;45.748;12.106;2024-03-23T07:27:42;25.60;;;22.80;;
12631;SDS011;6381;45.748;12.106;2024-03-23T07:30:10;27.70;;;22.80;;
12631;SDS011;6381;45.748;12.106;2024-03-23T07:32:38;28.13;;;23.73;;
12631;SDS011;6381;45.748;12.106;2024-03-23T07:35:07;29.43;;;24.10;;
12631;SDS011;6381;45.748;12.106;2024-03-23T07:37:35;26.87;;;23.97;;
12631;SDS011;6381;45.748;12.106;2024-03-23T07:40:03;28.93;;;23.83;;
12631;SDS011;6381;45.748;12.106;2024-03-23T07:42:32;25.47;;;22.63;;
12631;SDS011;6381;45.748;12.106;2024-03-23T07:44:59;31.13;;;24.63;;
12631;SDS011;6381;45.748;12.106;2024-03-23T07:47:28;28.47;;;23.13;;
12631;SDS011;6381;45.748;12.106;2024-03-23T07:49:55;31.20;;;24.00;;
12631;SDS011;6381;45.748;12.106;2024-03-23T07:52:27;28.57;;;24.30;;
12631;SDS011;6381;45.748;12.106;2024-03-23T07:54:55;29.97;;;23.90;;
12631;SDS011;6381;45.748;12.106;2024-03-23T07:57:23;27.83;;;23.33;;
12631;SDS011;6381;45.748;12.106;2024-03-23T07:59:50;28.10;;;23.13;;
12631;SDS011;6381;45.748;12.106;2024-03-23T08:02:19;28.80;;;22.57;;
12631;SDS011;6381;45.748;12.106;2024-03-23T08:04:46;25.50;;;22.10;;
12631;SDS011;6381;45.748;12.106;2024-03-23T08:07:15;27.30;;;22.00;;
12631;SDS011;6381;45.748;12.106;2024-03-23T08:09:44;25.83;;;23.03;;
12631;SDS011;6381;45.748;12.106;2024-03-23T08:12:12;25.17;;;22.23;;
12631;SDS011;6381;45.748;12.106;2024-03-23T08:14:40;28.00;;;22.53;;
12631;SDS011;6381;45.748;12.106;2024-03-23T08:17:08;27.23;;;22.13;;
12631;SDS011;6381;45.748;12.106;2024-03-23T08:19:35;29.47;;;22.97;;
12631;SDS011;6381;45.748;12.106;2024-03-23T08:22:04;27.03;;;23.27;;
12631;SDS011;6381;45.748;12.106;2024-03-23T08:24:32;30.03;;;23.53;;
12631;SDS011;6381;45.748;12.106;2024-03-23T08:27:02;29.45;;;24.20;;
12631;SDS011;6381;45.748;12.106;2024-03-23T08:29:30;27.33;;;21.95;;
12631;SDS011;6381;45.748;12.106;2024-03-23T08:31:59;28.17;;;23.23;;
12631;SDS011;6381;45.748;12.106;2024-03-23T08:34:27;27.08;;;23.02;;
12631;SDS011;6381;45.748;12.106;2024-03-23T08:36:55;30.38;;;24.63;;
12631;SDS011;6381;45.748;12.106;2024-03-23T08:39:23;26.90;;;23.65;;
12631;SDS011;6381;45.748;12.106;2024-03-23T08:41:51;31.67;;;24.55;;
12631;SDS011;6381;45.748;12.106;2024-03-23T08:44:20;26.17;;;23.50;;
12631;SDS011;6381;45.748;12.106;2024-03-23T08:46:49;28.35;;;23.70;;
12631;SDS011;6381;45.748;12.106;2024-03-23T08:49:16;27.70;;;22.52;;
12631;SDS011;6381;45.748;12.106;2024-03-23T08:51:46;27.08;;;21.98;;
12631;SDS011;6381;45.748;12.106;2024-03-23T08:54:13;25.40;;;22.65;;
12631;SDS011;6381;45.748;12.106;2024-03-23T08:56:42;24.02;;;20.85;;
12631;SDS011;6381;45.748;12.106;2024-03-23T08:59:09;28.10;;;22.30;;
12631;SDS011;6381;45.748;12.106;2024-03-23T09:01:39;29.33;;;21.88;;
12631;SDS011;6381;45.748;12.106;2024-03-23T09:04:06;24.52;;;21.15;;
12631;SDS011;6381;45.748;12.106;2024-03-23T09:06:36;25.23;;;22.50;;
12631;SDS011;6381;45.748;12.106;2024-03-23T09:09:03;25.75;;;22.35;;
12631;SDS011;6381;45.748;12.106;2024-03-23T09:11:31;24.23;;;20.30;;
12631;SDS011;6381;45.748;12.106;2024-03-23T09:13:59;23.85;;;20.85;;
12631;SDS011;6381;45.748;12.106;2024-03-23T09:16:27;24.17;;;20.88;;
12631;SDS011;6381;45.748;12.106;2024-03-23T09:18:56;25.20;;;21.25;;
12631;SDS011;6381;45.748;12.106;2024-03-23T09:21:25;24.17;;;21.63;;
12631;SDS011;6381;45.748;12.106;2024-03-23T09:23:52;27.20;;;22.35;;
12631;SDS011;6381;45.748;12.106;2024-03-23T09:26:20;25.83;;;21.52;;
12631;SDS011;6381;45.748;12.106;2024-03-23T09:28:48;24.23;;;21.70;;
12631;SDS011;6381;45.748;12.106;2024-03-23T09:31:16;28.95;;;21.85;;
12631;SDS011;6381;45.748;12.106;2024-03-23T09:33:44;24.55;;;21.90;;
12631;SDS011;6381;45.748;12.106;2024-03-23T09:36:14;23.80;;;20.80;;
12631;SDS011;6381;45.748;12.106;2024-03-23T09:38:41;23.65;;;20.95;;
12631;SDS011;6381;45.748;12.106;2024-03-23T09:41:10;23.67;;;21.17;;
12631;SDS011;6381;45.748;12.106;2024-03-23T09:43:38;26.85;;;21.33;;
12631;SDS011;6381;45.748;12.106;2024-03-23T09:46:06;24.25;;;21.40;;
12631;SDS011;6381;45.748;12.106;2024-03-23T09:48:34;23.23;;;20.85;;
12631;SDS011;6381;45.748;12.106;2024-03-23T09:51:04;25.20;;;20.90;;
12631;SDS011;6381;45.748;12.106;2024-03-23T09:53:35;25.17;;;19.83;;
12631;SDS011;6381;45.748;12.106;2024-03-23T09:56:05;23.70;;;20.85;;
12631;SDS011;6381;45.748;12.106;2024-03-23T09:58:34;23.40;;;20.48;;
12631;SDS011;6381;45.748;12.106;2024-03-23T10:01:03;24.17;;;20.88;;
12631;SDS011;6381;45.748;12.106;2024-03-23T10:03:31;25.73;;;21.38;;
12631;SDS011;6381;45.748;12.106;2024-03-23T10:06:03;26.40;;;22.58;;
12631;SDS011;6381;45.748;12.106;2024-03-23T10:08:31;24.60;;;21.52;;
12631;SDS011;6381;45.748;12.106;2024-03-23T10:11:12;24.95;;;22.10;;
12631;SDS011;6381;45.748;12.106;2024-03-23T10:13:40;27.75;;;23.17;;
12631;SDS011;6381;45.748;12.106;2024-03-23T10:16:09;24.33;;;21.70;;
12631;SDS011;6381;45.748;12.106;2024-03-23T10:18:37;24.35;;;21.75;;
12631;SDS011;6381;45.748;12.106;2024-03-23T10:21:06;25.38;;;22.17;;
12631;SDS011;6381;45.748;12.106;2024-03-23T10:23:34;26.23;;;23.08;;
12631;SDS011;6381;45.748;12.106;2024-03-23T10:26:14;29.60;;;22.92;;
12631;SDS011;6381;45.748;12.106;2024-03-23T10:31:27;28.67;;;21.95;;
12631;SDS011;6381;45.748;12.106;2024-03-23T10:33:55;26.02;;;22.60;;
12631;SDS011;6381;45.748;12.106;2024-03-23T10:36:24;26.65;;;23.27;;
12631;SDS011;6381;45.748;12.106;2024-03-23T10:38:52;30.10;;;24.52;;
12631;SDS011;6381;45.748;12.106;2024-03-23T10:41:23;28.58;;;23.38;;
12631;SDS011;6381;45.748;12.106;2024-03-23T10:43:54;28.33;;;22.67;;
12631;SDS011;6381;45.748;12.106;2024-03-23T10:46:25;26.33;;;23.52;;
12631;SDS011;6381;45.748;12.106;2024-03-23T10:48:52;27.80;;;23.67;;
12631;SDS011;6381;45.748;12.106;2024-03-23T10:51:21;28.17;;;23.15;;
12631;SDS011;6381;45.748;12.106;2024-03-23T10:53:48;30.23;;;23.95;;
12631;SDS011;6381;45.748;12.106;2024-03-23T10:56:17;27.88;;;23.00;;
12631;SDS011;6381;45.748;12.106;2024-03-23T10:58:46;30.00;;;23.73;;
12631;SDS011;6381;45.748;12.106;2024-03-23T11:01:17;27.90;;;24.20;;
12631;SDS011;6381;45.748;12.106;2024-03-23T11:03:45;31.00;;;24.50;;
12631;SDS011;6381;45.748;12.106;2024-03-23T11:08:56;29.60;;;24.95;;
12631;SDS011;6381;45.748;12.106;2024-03-23T11:11:24;32.15;;;26.90;;
12631;SDS011;6381;45.748;12.106;2024-03-23T11:13:54;33.38;;;27.33;;
12631;SDS011;6381;45.748;12.106;2024-03-23T11:16:22;29.88;;;25.40;;
12631;SDS011;6381;45.748;12.106;2024-03-23T11:18:50;29.63;;;26.42;;
12631;SDS011;6381;45.748;12.106;2024-03-23T11:24:14;30.45;;;26.63;;
12631;SDS011;6381;45.748;12.106;2024-03-23T11:26:43;32.40;;;27.33;;
12631;SDS011;6381;45.748;12.106;2024-03-23T11:29:12;32.95;;;27.63;;
12631;SDS011;6381;45.748;12.106;2024-03-23T11:31:45;29.25;;;26.05;;
12631;SDS011;6381;45.748;12.106;2024-03-23T11:34:15;30.52;;;26.60;;
12631;SDS011;6381;45.748;12.106;2024-03-23T11:36:42;34.95;;;28.70;;
12631;SDS011;6381;45.748;12.106;2024-03-23T11:39:11;31.30;;;27.30;;
12631;SDS011;6381;45.748;12.106;2024-03-23T11:41:46;29.90;;;26.65;;
12631;SDS011;6381;45.748;12.106;2024-03-23T11:44:17;31.30;;;27.10;;
12631;SDS011;6381;45.748;12.106;2024-03-23T11:46:44;30.92;;;27.52;;
12631;SDS011;6381;45.748;12.106;2024-03-23T11:49:22;29.77;;;25.83;;
12631;SDS011;6381;45.748;12.106;2024-03-23T11:51:50;28.98;;;25.45;;
12631;SDS011;6381;45.748;12.106;2024-03-23T11:54:20;26.65;;;23.30;;
12631;SDS011;6381;45.748;12.106;2024-03-23T11:56:54;26.00;;;23.05;;
12631;SDS011;6381;45.748;12.106;2024-03-23T11:59:35;24.85;;;20.95;;
12631;SDS011;6381;45.748;12.106;2024-03-23T12:02:07;22.70;;;20.20;;
12631;SDS011;6381;45.748;12.106;2024-03-23T12:04:41;21.02;;;18.80;;
12631;SDS011;6381;45.748;12.106;2024-03-23T12:07:15;24.45;;;20.15;;
12631;SDS011;6381;45.748;12.106;2024-03-23T12:10:02;22.85;;;20.33;;
12631;SDS011;6381;45.748;12.106;2024-03-23T12:12:30;22.38;;;19.95;;
12631;SDS011;6381;45.748;12.106;2024-03-23T12:15:03;21.52;;;18.88;;
12631;SDS011;6381;45.748;12.106;2024-03-23T12:17:31;21.80;;;18.80;;
12631;SDS011;6381;45.748;12.106;2024-03-23T12:20:00;21.33;;;19.13;;
12631;SDS011;6381;45.748;12.106;2024-03-23T12:22:28;20.92;;;18.25;;
12631;SDS011;6381;45.748;12.106;2024-03-23T12:24:57;20.98;;;18.88;;
12631;SDS011;6381;45.748;12.106;2024-03-23T12:27:24;20.42;;;18.25;;
12631;SDS011;6381;45.748;12.106;2024-03-23T12:29:52;19.55;;;17.55;;
12631;SDS011;6381;45.748;12.106;2024-03-23T12:32:22;19.48;;;17.48;;
12631;SDS011;6381;45.748;12.106;2024-03-23T12:34:50;20.33;;;18.23;;
12631;SDS011;6381;45.748;12.106;2024-03-23T12:37:18;18.45;;;16.52;;
12631;SDS011;6381;45.748;12.106;2024-03-23T12:39:46;19.98;;;16.40;;
12631;SDS011;6381;45.748;12.106;2024-03-23T12:42:14;18.33;;;16.48;;
12631;SDS011;6381;45.748;12.106;2024-03-23T12:44:42;19.63;;;17.60;;
12631;SDS011;6381;45.748;12.106;2024-03-23T12:47:10;21.10;;;18.67;;
12631;SDS011;6381;45.748;12.106;2024-03-23T12:49:40;20.73;;;18.30;;
12631;SDS011;6381;45.748;12.106;2024-03-23T12:52:07;19.63;;;17.63;;
12631;SDS011;6381;45.748;12.106;2024-03-23T12:54:36;19.48;;;17.50;;
12631;SDS011;6381;45.748;12.106;2024-03-23T12:57:03;20.35;;;18.25;;
12631;SDS011;6381;45.748;12.106;2024-03-23T12:59:32;22.02;;;16.83;;
12631;SDS011;6381;45.748;12.106;2024-03-23T13:02:01;19.80;;;17.75;;
12631;SDS011;6381;45.748;12.106;2024-03-23T13:04:30;20.13;;;17.95;;
12631;SDS011;6381;45.748;12.106;2024-03-23T13:06:59;18.70;;;16.40;;
12631;SDS011;6381;45.748;12.106;2024-03-23T13:09:27;19.35;;;16.92;;
12631;SDS011;6381;45.748;12.106;2024-03-23T13:13:53;21.13;;;17.92;;
12631;SDS011;6381;45.748;12.106;2024-03-23T13:16:22;21.70;;;19.40;;
12631;SDS011;6381;45.748;12.106;2024-03-23T13:18:50;23.42;;;18.92;;
12631;SDS011;6381;45.748;12.106;2024-03-23T13:21:18;24.20;;;20.38;;
12631;SDS011;6381;45.748;12.106;2024-03-23T13:23:46;25.90;;;21.58;;
12631;SDS011;6381;45.748;12.106;2024-03-23T13:26:16;24.70;;;20.92;;
12631;SDS011;6381;45.748;12.106;2024-03-23T13:28:43;24.77;;;21.67;;
12631;SDS011;6381;45.748;12.106;2024-03-23T13:31:13;23.60;;;21.08;;
12631;SDS011;6381;45.748;12.106;2024-03-23T13:33:40;25.20;;;22.30;;
12631;SDS011;6381;45.748;12.106;2024-03-23T13:36:10;24.83;;;22.23;;
12631;SDS011;6381;45.748;12.106;2024-03-23T13:38:37;25.65;;;22.83;;
12631;SDS011;6381;45.748;12.106;2024-03-23T13:41:06;24.52;;;21.92;;
12631;SDS011;6381;45.748;12.106;2024-03-23T13:43:34;25.67;;;22.88;;
12631;SDS011;6381;45.748;12.106;2024-03-23T13:46:03;24.20;;;21.02;;
12631;SDS011;6381;45.748;12.106;2024-03-23T13:48:33;24.27;;;21.25;;
12631;SDS011;6381;45.748;12.106;2024-03-23T13:51:00;25.00;;;22.30;;
12631;SDS011;6381;45.748;12.106;2024-03-23T13:53:29;27.40;;;23.80;;
12631;SDS011;6381;45.748;12.106;2024-03-23T13:55:56;30.38;;;24.10;;
12631;SDS011;6381;45.748;12.106;2024-03-23T13:58:25;29.00;;;24.52;;
12631;SDS011;6381;45.748;12.106;2024-03-23T14:00:52;26.35;;;23.48;;
12631;SDS011;6381;45.748;12.106;2024-03-23T14:03:21;25.48;;;22.17;;
12631;SDS011;6381;45.748;12.106;2024-03-23T14:05:50;26.70;;;23.08;;
12631;SDS011;6381;45.748;12.106;2024-03-23T14:08:20;26.23;;;23.15;;
12631;SDS011;6381;45.748;12.106;2024-03-23T14:10:47;28.77;;;24.42;;
12631;SDS011;6381;45.748;12.106;2024-03-23T14:13:17;26.83;;;22.13;;
12631;SDS011;6381;45.748;12.106;2024-03-23T14:15:44;27.05;;;23.00;;
12631;SDS011;6381;45.748;12.106;2024-03-23T14:18:13;25.63;;;22.70;;
12631;SDS011;6381;45.748;12.106;2024-03-23T14:20:40;27.05;;;22.95;;
12631;SDS011;6381;45.748;12.106;2024-03-23T14:23:10;25.33;;;22.63;;
12631;SDS011;6381;45.748;12.106;2024-03-23T14:25:38;27.35;;;22.92;;
12631;SDS011;6381;45.748;12.106;2024-03-23T14:28:08;26.08;;;22.88;;
12631;SDS011;6381;45.748;12.106;2024-03-23T14:30:40;25.40;;;22.20;;
12631;SDS011;6381;45.748;12.106;2024-03-23T14:33:09;25.23;;;22.55;;
12631;SDS011;6381;45.748;12.106;2024-03-23T14:35:36;24.02;;;21.27;;
12631;SDS011;6381;45.748;12.106;2024-03-23T14:38:05;25.63;;;21.60;;
12631;SDS011;6381;45.748;12.106;2024-03-23T14:40:35;25.25;;;22.35;;
12631;SDS011;6381;45.748;12.106;2024-03-23T14:43:03;24.83;;;22.23;;
12631;SDS011;6381;45.748;12.106;2024-03-23T14:45:31;24.90;;;22.02;;
12631;SDS011;6381;45.748;12.106;2024-03-23T14:47:59;29.42;;;23.77;;
12631;SDS011;6381;45.748;12.106;2024-03-23T14:50:34;26.88;;;22.75;;
12631;SDS011;6381;45.748;12.106;2024-03-23T14:53:03;27.63;;;23.33;;
12631;SDS011;6381;45.748;12.106;2024-03-23T14:55:31;26.73;;;23.30;;
12631;SDS011;6381;45.748;12.106;2024-03-23T14:58:01;25.85;;;22.88;;
12631;SDS011;6381;45.748;12.106;2024-03-23T15:00:28;27.17;;;22.80;;
12631;SDS011;6381;45.748;12.106;2024-03-23T15:02:57;29.02;;;23.65;;
12631;SDS011;6381;45.748;12.106;2024-03-23T15:05:28;27.20;;;23.42;;
12631;SDS011;6381;45.748;12.106;2024-03-23T15:07:57;25.92;;;23.17;;
12631;SDS011;6381;45.748;12.106;2024-03-23T15:10:24;27.90;;;24.88;;
12631;SDS011;6381;45.748;12.106;2024-03-23T15:12:53;28.25;;;25.25;;
12631;SDS011;6381;45.748;12.106;2024-03-23T15:15:22;28.52;;;25.42;;
12631;SDS011;6381;45.748;12.106;2024-03-23T15:17:51;28.75;;;25.65;;
12631;SDS011;6381;45.748;12.106;2024-03-23T15:20:24;31.45;;;26.52;;
12631;SDS011;6381;45.748;12.106;2024-03-23T15:22:56;31.75;;;26.98;;
12631;SDS011;6381;45.748;12.106;2024-03-23T15:25:25;32.25;;;26.95;;
12631;SDS011;6381;45.748;12.106;2024-03-23T15:27:53;33.75;;;28.05;;
12631;SDS011;6381;45.748;12.106;2024-03-23T15:30:23;31.70;;;28.25;;
12631;SDS011;6381;45.748;12.106;2024-03-23T15:32:52;33.15;;;28.25;;